Time;durP1;ratioP1;P1;durP2;ratioP2;P2;SDS_P1;SDS_P2;PMS_P1;PMS_P2;Temp;Humidity;BMP_temperature;BMP_pressure;BME280_temperature;BME280_humidity;BME280_pressure;Samples;Min_cycle;Max_cycle;Signal;HPM_P1;HPM_P2
2024/02/15 00:02:20;;;;;;;;;;;8.10;99.90;;;;;;6217465;23;20087;-79
2024/02/15 00:04:46;;;;;;;;;;;8.10;99.90;;;;;;6217144;23;20024;-78
2024/02/15 00:07:11;;;;;;;;;;;8.10;99.90;;;;;;6217129;23;20009;-79
2024/02/15 00:09:37;;;;;;;;;;;8.10;99.90;;;;;;6217246;23;20016;-79
2024/02/15 00:12:02;;;;;;;;;;;8.10;99.90;;;;;;6217529;23;20079;-79
2024/02/15 00:14:28;;;;;;;;;;;8.10;99.90;;;;;;6216586;23;20014;-79
2024/02/15 00:16:54;;;;;;;;;;;8.00;99.90;;;;;;6217357;23;20158;-79
2024/02/15 00:19:21;;;;;;;;;;;8.00;99.90;;;;;;6218987;23;20031;-79
2024/02/15 00:21:47;;;;;;;;;;;8.00;99.90;;;;;;6218040;23;20026;-79
2024/02/15 00:24:14;;;;;;;;;;;8.00;99.90;;;;;;6217539;23;20494;-79
2024/02/15 00:26:40;;;;;;;;;;;8.00;99.90;;;;;;6217072;23;20026;-79
2024/02/15 00:29:05;;;;;;;;;;;8.00;99.90;;;;;;6217017;23;20036;-79
2024/02/15 00:31:31;;;;;;;;;;;8.00;99.90;;;;;;6216569;23;20023;-78
2024/02/15 00:33:56;;;;;;;;;;;8.00;99.90;;;;;;6216219;23;20023;-79
2024/02/15 00:36:23;;;;;;;;;;;8.00;99.90;;;;;;6216891;23;20449;-79
2024/02/15 00:38:48;;;;;;;;;;;8.10;99.90;;;;;;6216318;23;20054;-79
2024/02/15 00:41:13;;;;;;;;;;;8.10;99.90;;;;;;6216698;23;20012;-79
2024/02/15 00:43:39;;;;;;;;;;;8.10;99.90;;;;;;6216668;23;20017;-79
2024/02/15 00:46:04;;;;;;;;;;;8.10;99.90;;;;;;6216080;23;20013;-79
2024/02/15 00:48:30;;;;;;;;;;;8.10;99.90;;;;;;6217212;23;20023;-78
2024/02/15 00:50:56;;;;;;;;;;;8.10;99.90;;;;;;6216786;23;20034;-79
2024/02/15 00:53:21;;;;;;;;;;;8.10;99.90;;;;;;6216888;23;20047;-79
2024/02/15 00:55:47;;;;;;;;;;;8.10;99.90;;;;;;6216952;23;20077;-79
2024/02/15 00:58:12;;;;;;;;;;;8.10;99.90;;;;;;6216523;23;20015;-79
2024/02/15 01:00:38;;;;;;;;;;;8.00;99.90;;;;;;6217162;23;20379;-79
2024/02/15 01:03:03;;;;;;;;;;;8.00;99.90;;;;;;6215983;23;20065;-79
2024/02/15 01:05:30;;;;;;;;;;;8.00;99.90;;;;;;6216284;23;20019;-79
2024/02/15 01:07:56;;;;;;;;;;;8.00;99.90;;;;;;6217237;23;20099;-79
2024/02/15 01:10:22;;;;;;;;;;;7.90;99.90;;;;;;6217381;23;20072;-79
2024/02/15 01:12:48;;;;;;;;;;;7.90;99.90;;;;;;6216763;23;20417;-79
2024/02/15 01:15:15;;;;;;;;;;;7.80;99.90;;;;;;6216517;23;20051;-79
2024/02/15 01:17:41;;;;;;;;;;;7.80;99.90;;;;;;6216493;23;20035;-79
2024/02/15 01:20:07;;;;;;;;;;;7.70;99.90;;;;;;6217793;23;20508;-79
2024/02/15 01:22:32;;;;;;;;;;;7.60;99.90;;;;;;6216159;23;20016;-79
2024/02/15 01:24:58;;;;;;;;;;;7.60;99.90;;;;;;6216468;23;20013;-79
2024/02/15 01:27:23;;;;;;;;;;;7.50;99.90;;;;;;6216442;23;20097;-79
2024/02/15 01:29:48;;;;;;;;;;;7.40;99.90;;;;;;6217166;23;20015;-79
2024/02/15 01:32:14;;;;;;;;;;;7.30;99.90;;;;;;6216063;23;20165;-78
2024/02/15 01:34:40;;;;;;;;;;;7.20;99.90;;;;;;6216166;23;20012;-79
2024/02/15 01:37:05;;;;;;;;;;;7.10;99.90;;;;;;6215859;23;20575;-79
2024/02/15 01:39:31;;;;;;;;;;;7.10;99.90;;;;;;6216642;23;20026;-78
2024/02/15 01:41:56;;;;;;;;;;;7.00;99.90;;;;;;6217771;23;20020;-79
2024/02/15 01:44:24;;;;;;;;;;;6.90;99.90;;;;;;6217956;23;20056;-78
2024/02/15 01:46:50;;;;;;;;;;;6.90;99.90;;;;;;6217540;23;20020;-79
2024/02/15 01:49:15;;;;;;;;;;;6.80;99.90;;;;;;6217686;23;20101;-79
2024/02/15 01:51:43;;;;;;;;;;;6.80;99.90;;;;;;6216851;23;20062;-79
2024/02/15 01:54:09;;;;;;;;;;;6.80;99.90;;;;;;6215213;23;20046;-79
2024/02/15 01:56:36;;;;;;;2.60;1.60;;;6.80;99.90;;;;;;6215898;23;20023;-79
2024/02/15 01:59:02;;;;;;;;;;;6.80;99.90;;;;;;6217004;23;20381;-79
2024/02/15 02:01:31;;;;;;;;;;;6.80;99.90;;;;;;6215368;23;20009;-79
2024/02/15 02:03:56;;;;;;;;;;;6.80;99.90;;;;;;6214856;23;20021;-78
2024/02/15 02:06:22;;;;;;;;;;;6.80;99.90;;;;;;6215745;23;20023;-78
2024/02/15 02:08:48;;;;;;;;;;;6.90;99.90;;;;;;6215940;23;20023;-78
2024/02/15 02:11:13;;;;;;;;;;;6.80;99.90;;;;;;6216282;23;20027;-79
2024/02/15 02:13:39;;;;;;;;;;;6.80;99.90;;;;;;6215889;23;20466;-78
2024/02/15 02:16:23;;;;;;;;;;;6.90;99.90;;;;;;6215004;23;20091;-79
2024/02/15 02:18:50;;;;;;;;;;;6.90;99.90;;;;;;6215626;23;20048;-78
2024/02/15 02:21:15;;;;;;;;;;;6.90;99.90;;;;;;6216238;23;20012;-78
2024/02/15 02:23:41;;;;;;;;;;;6.90;99.90;;;;;;6215994;23;20047;-79
2024/02/15 02:26:09;;;;;;;;;;;6.90;99.90;;;;;;6215888;23;20303;-79
2024/02/15 02:28:36;;;;;;;;;;;6.90;99.90;;;;;;6215787;23;20445;-79
2024/02/15 02:31:01;;;;;;;;;;;6.90;99.90;;;;;;6216651;23;20431;-78
2024/02/15 02:33:28;;;;;;;;;;;6.90;99.90;;;;;;6216692;23;20040;-79
2024/02/15 02:35:57;;;;;;;7.45;1.90;;;7.00;99.90;;;;;;6216108;23;20092;-79
2024/02/15 02:38:26;;;;;;;;;;;7.00;99.90;;;;;;6216031;23;20038;-79
2024/02/15 02:40:52;;;;;;;4.40;1.70;;;7.00;99.90;;;;;;6217710;23;20009;-79
2024/02/15 02:43:17;;;;;;;;;;;7.00;99.90;;;;;;6217191;23;20024;-79
2024/02/15 02:45:45;;;;;;;4.10;1.90;;;7.00;99.90;;;;;;6217467;23;20027;-78
2024/02/15 02:48:11;;;;;;;6.10;2.20;;;7.00;99.90;;;;;;6218400;23;20379;-78
2024/02/15 02:50:37;;;;;;;;;;;7.00;99.90;;;;;;6218074;23;20012;-78
2024/02/15 02:53:03;;;;;;;5.50;2.10;;;7.00;99.90;;;;;;6217396;23;20005;-78
2024/02/15 02:55:29;;;;;;;;;;;7.00;99.90;;;;;;6219821;23;20091;-79
2024/02/15 02:57:57;;;;;;;;;;;7.00;99.90;;;;;;6218164;23;20012;-79
2024/02/15 03:00:23;;;;;;;;;;;7.00;99.90;;;;;;6217369;23;20021;-79
2024/02/15 03:02:48;;;;;;;4.40;2.10;;;7.00;99.90;;;;;;6217092;23;20104;-79
2024/02/15 03:05:14;;;;;;;;;;;7.00;99.90;;;;;;6217052;23;20378;-79
2024/02/15 03:07:40;;;;;;;;;;;7.00;99.90;;;;;;6217577;23;20053;-79
2024/02/15 03:10:09;;;;;;;;;;;7.00;99.90;;;;;;6218141;23;20027;-79
2024/02/15 03:12:35;;;;;;;;;;;7.00;99.90;;;;;;6217520;23;20035;-79
2024/02/15 03:15:01;;;;;;;;;;;6.90;99.90;;;;;;6217358;23;20016;-79
2024/02/15 03:17:27;;;;;;;;;;;6.90;99.90;;;;;;6217981;23;20023;-78
2024/02/15 03:19:52;;;;;;;;;;;6.90;99.90;;;;;;6217987;23;20032;-79
2024/02/15 03:22:18;;;;;;;;;;;6.90;99.90;;;;;;6217175;23;20016;-78
2024/02/15 03:24:43;;;;;;;;;;;6.90;99.90;;;;;;6216749;23;20095;-78
2024/02/15 03:27:15;;;;;;;;;;;6.90;99.90;;;;;;6216769;23;20013;-79
2024/02/15 03:29:40;;;;;;;;;;;6.90;99.90;;;;;;6217460;23;20083;-79
2024/02/15 03:32:06;;;;;;;;;;;6.90;99.90;;;;;;6217194;23;20386;-79
2024/02/15 03:34:31;;;;;;;;;;;6.90;99.90;;;;;;6216063;23;20051;-79
2024/02/15 03:36:57;;;;;;;;;;;6.80;99.90;;;;;;6217542;23;20005;-78
2024/02/15 03:39:23;;;;;;;;;;;6.80;99.90;;;;;;6217460;23;20021;-78
2024/02/15 03:41:50;;;;;;;;;;;6.80;99.90;;;;;;6216547;23;20117;-79
2024/02/15 03:44:18;;;;;;;4.10;2.40;;;6.80;99.90;;;;;;6216265;23;20366;-78
2024/02/15 03:46:50;;;;;;;4.60;2.40;;;6.80;99.90;;;;;;6216895;23;20083;-78
2024/02/15 03:49:19;;;;;;;6.50;3.00;;;6.70;99.90;;;;;;6216921;23;20020;-78
2024/02/15 03:51:45;;;;;;;4.10;2.10;;;6.70;99.90;;;;;;6215536;23;20082;-78
2024/02/15 03:54:12;;;;;;;5.20;2.20;;;6.60;99.90;;;;;;6216176;23;20016;-79
2024/02/15 03:56:46;;;;;;;;;;;6.60;99.90;;;;;;6216700;23;20640;-79
2024/02/15 03:59:13;;;;;;;5.40;2.20;;;6.50;99.90;;;;;;6217287;23;20084;-78
2024/02/15 04:01:39;;;;;;;;;;;6.40;99.90;;;;;;6216782;23;20016;-78
2024/02/15 04:04:05;;;;;;;4.30;2.25;;;6.40;99.90;;;;;;6216219;23;20317;-78
2024/02/15 04:06:33;;;;;;;;;;;6.40;99.90;;;;;;6216648;23;20068;-79
2024/02/15 04:08:59;;;;;;;6.80;2.40;;;6.30;99.90;;;;;;6216144;23;20016;-78
2024/02/15 04:11:25;;;;;;;5.10;2.10;;;6.30;99.90;;;;;;6216880;23;20041;-78
2024/02/15 04:13:50;;;;;;;;;;;6.20;99.90;;;;;;6215367;23;20000;-78
2024/02/15 04:16:16;;;;;;;4.60;2.90;;;6.20;99.90;;;;;;6216286;23;20020;-78
2024/02/15 04:18:44;;;;;;;5.75;2.15;;;6.20;99.90;;;;;;6216622;23;20325;-79
2024/02/15 04:21:09;;;;;;;;;;;6.10;99.90;;;;;;6216405;23;20025;-79
2024/02/15 04:23:34;;;;;;;3.50;2.10;;;6.10;99.90;;;;;;6216287;23;20024;-78
2024/02/15 04:26:00;;;;;;;;;;;6.10;99.90;;;;;;6215727;23;20375;-79
2024/02/15 04:28:27;;;;;;;;;;;6.00;99.90;;;;;;6215839;23;20027;-78
2024/02/15 04:30:52;;;;;;;4.55;2.50;;;6.00;99.90;;;;;;6189186;23;20067;-78
2024/02/15 04:33:18;;;;;;;4.60;2.20;;;6.00;99.90;;;;;;6215570;23;19900;-78
2024/02/15 04:35:43;;;;;;;7.40;3.15;;;5.90;99.90;;;;;;6215039;23;20615;-78
2024/02/15 04:38:09;;;;;;;3.75;1.90;;;5.90;99.90;;;;;;6215755;23;19904;-78
2024/02/15 04:40:37;;;;;;;;;;;5.80;99.90;;;;;;6216070;23;20088;-79
2024/02/15 04:43:04;;;;;;;;;;;5.80;99.90;;;;;;6215171;23;20031;-78
2024/02/15 04:45:30;;;;;;;3.55;1.85;;;5.70;99.90;;;;;;6214623;23;20016;-78
2024/02/15 04:48:01;;;;;;;6.60;2.60;;;5.60;99.90;;;;;;6215413;23;20355;-78
2024/02/15 04:50:29;;;;;;;4.10;1.90;;;5.60;99.90;;;;;;6215903;23;20016;-79
2024/02/15 04:52:54;;;;;;;3.80;1.60;;;5.50;99.90;;;;;;6214803;23;20024;-79
2024/02/15 04:55:22;;;;;;;5.30;1.90;;;5.40;99.90;;;;;;6214994;23;19915;-78
2024/02/15 04:57:49;;;;;;;5.90;1.90;;;5.40;99.90;;;;;;6215032;23;20104;-78
2024/02/15 05:00:15;;;;;;;4.60;2.00;;;5.30;99.90;;;;;;6215312;23;19961;-78
2024/02/15 05:02:43;;;;;;;2.90;1.60;;;5.30;99.90;;;;;;6214668;23;20146;-78
2024/02/15 05:05:09;;;;;;;5.80;2.80;;;5.20;99.90;;;;;;6214663;23;20402;-78
2024/02/15 05:07:37;;;;;;;;;;;5.20;99.90;;;;;;6215311;23;20063;-78
2024/02/15 05:10:06;;;;;;;;;;;5.10;99.90;;;;;;6215926;23;20026;-78
2024/02/15 05:12:33;;;;;;;3.60;2.10;;;5.10;99.90;;;;;;6215411;23;20025;-79
2024/02/15 05:14:59;;;;;;;8.30;3.30;;;5.00;99.90;;;;;;6214971;23;20026;-78
2024/02/15 05:17:24;;;;;;;;;;;5.00;99.90;;;;;;6215325;23;19930;-78
2024/02/15 05:19:50;;;;;;;;;;;4.90;99.90;;;;;;6215419;23;20432;-78
2024/02/15 05:22:15;;;;;;;6.00;3.40;;;4.90;99.90;;;;;;6215838;23;20092;-79
2024/02/15 05:24:41;;;;;;;5.35;3.50;;;4.80;99.90;;;;;;6215076;23;19907;-78
2024/02/15 05:27:07;;;;;;;10.70;3.30;;;4.80;99.90;;;;;;6215063;23;20088;-79
2024/02/15 05:29:35;;;;;;;;;;;4.80;99.90;;;;;;6214628;23;20497;-79
2024/02/15 05:32:01;;;;;;;6.55;2.90;;;4.70;99.90;;;;;;6187461;23;20023;-79
2024/02/15 05:34:27;;;;;;;;;;;4.60;99.90;;;;;;6213535;23;20025;-79
2024/02/15 05:36:52;;;;;;;9.80;3.40;;;4.60;99.90;;;;;;6213880;23;20037;-79
2024/02/15 05:39:21;;;;;;;;;;;4.50;99.90;;;;;;6214724;23;20442;-78
2024/02/15 05:41:46;;;;;;;;;;;4.50;99.90;;;;;;6215343;23;20020;-82
2024/02/15 05:44:13;;;;;;;;;;;4.40;99.90;;;;;;6218638;23;20348;-81
2024/02/15 05:46:40;;;;;;;;;;;4.40;99.90;;;;;;6220564;23;20016;-81
2024/02/15 05:49:05;;;;;;;;;;;4.40;99.90;;;;;;6219355;23;20557;-81
2024/02/15 05:51:31;;;;;;;;;;;4.30;99.90;;;;;;6216584;23;20016;-82
2024/02/15 05:54:00;;;;;;;;;;;4.30;99.90;;;;;;6213552;23;20443;-75
2024/02/15 05:56:26;;;;;;;;;;;4.30;99.90;;;;;;6211434;23;20473;-74
2024/02/15 05:58:52;;;;;;;20.50;4.20;;;4.30;99.90;;;;;;6215284;23;20016;-82
2024/02/15 06:01:17;;;;;;;;;;;4.30;99.90;;;;;;6218659;23;20028;-82
2024/02/15 06:03:44;;;;;;;;;;;4.20;99.90;;;;;;6218742;23;20021;-83
2024/02/15 06:06:11;;;;;;;;;;;4.20;99.90;;;;;;6217270;23;20023;-82
2024/02/15 06:08:37;;;;;;;;;;;4.20;99.90;;;;;;6218326;23;20012;-83
2024/02/15 06:11:03;;;;;;;;;;;4.20;99.90;;;;;;6217258;23;20013;-80
2024/02/15 06:13:29;;;;;;;7.80;3.90;;;4.10;99.90;;;;;;6217135;23;20012;-82
2024/02/15 06:15:55;;;;;;;;;;;4.10;99.90;;;;;;6217727;23;20035;-81
2024/02/15 06:18:28;;;;;;;;;;;4.10;99.90;;;;;;6219155;23;20079;-81
2024/02/15 06:20:56;;;;;;;;;;;4.10;99.90;;;;;;6217132;23;20016;-77
2024/02/15 06:23:22;;;;;;;8.60;3.25;;;4.10;99.90;;;;;;6217705;23;20016;-81
2024/02/15 06:25:50;;;;;;;;;;;4.10;99.90;;;;;;6216134;23;19924;-81
2024/02/15 06:41:57;;;;;;;12.20;4.90;;;4.20;99.90;;;;;;6217340;23;20474;-82
2024/02/15 06:44:24;;;;;;;10.40;4.50;;;4.20;99.90;;;;;;6219562;23;20004;-82
2024/02/15 06:46:50;;;;;;;12.00;4.90;;;4.30;99.90;;;;;;6220104;23;20038;-82
2024/02/15 06:49:16;;;;;;;12.80;4.90;;;4.30;99.90;;;;;;6217818;23;20300;-82
2024/02/15 06:51:41;;;;;;;;;;;4.30;99.90;;;;;;6218083;23;20020;-83
2024/02/15 06:54:07;;;;;;;13.95;5.05;;;4.30;99.90;;;;;;6217988;23;20012;-82
2024/02/15 06:56:39;;;;;;;18.30;5.20;;;4.40;99.90;;;;;;6217789;23;20362;-82
2024/02/15 06:59:05;;;;;;;;;;;4.30;99.90;;;;;;6218876;23;19907;-82
2024/02/15 07:01:30;;;;;;;10.60;4.40;;;4.30;99.90;;;;;;6218969;23;20030;-82
2024/02/15 07:03:56;;;;;;;22.00;5.30;;;4.30;99.90;;;;;;6217957;23;20027;-83
2024/02/15 07:06:22;;;;;;;21.60;4.70;;;4.30;99.90;;;;;;6218308;23;20409;-82
2024/02/15 07:08:50;;;;;;;;;;;4.40;99.90;;;;;;6218685;23;19900;-82
2024/02/15 07:11:16;;;;;;;20.10;4.70;;;4.30;99.90;;;;;;6218025;23;20033;-83
2024/02/15 07:13:41;;;;;;;19.85;5.60;;;4.40;99.90;;;;;;6217527;23;20062;-82
2024/02/15 07:16:08;;;;;;;16.30;5.00;;;4.40;99.90;;;;;;6172081;23;1054183;-82
2024/02/15 07:18:33;;;;;;;21.80;6.25;;;4.40;99.90;;;;;;6217142;23;20311;-82
2024/02/15 07:21:00;;;;;;;17.90;4.30;;;4.40;99.90;;;;;;6219772;23;20038;-82
2024/02/15 07:23:27;;;;;;;;;;;4.40;99.90;;;;;;6220098;23;20016;-82
2024/02/15 07:25:53;;;;;;;;;;;4.40;99.90;;;;;;6219215;23;20016;-86
2024/02/15 07:28:20;;;;;;;13.20;4.40;;;4.40;99.90;;;;;;6217022;23;20036;-81
2024/02/15 07:30:48;;;;;;;;;;;4.50;99.90;;;;;;6216531;23;20021;-82
2024/02/15 07:33:17;;;;;;;11.00;4.50;;;4.50;99.90;;;;;;6219080;23;20608;-81
2024/02/15 07:35:43;;;;;;;15.70;4.45;;;4.60;99.90;;;;;;6219026;23;20093;-81
2024/02/15 07:38:11;;;;;;;;;;;4.60;99.90;;;;;;6220456;23;19961;-81
2024/02/15 07:40:39;;;;;;;;;;;4.70;99.90;;;;;;6220037;23;20172;-82
2024/02/15 07:43:06;;;;;;;9.70;3.80;;;4.70;99.90;;;;;;6219531;23;20341;-82
2024/02/15 07:45:35;;;;;;;;;;;4.80;99.90;;;;;;6217339;23;20072;-80
2024/02/15 07:48:00;;;;;;;;;;;4.80;99.90;;;;;;6215250;23;20016;-80
2024/02/15 07:50:26;;;;;;;15.50;4.30;;;4.90;99.90;;;;;;6217614;23;20436;-79
2024/02/15 07:52:53;;;;;;;8.60;3.60;;;4.90;99.90;;;;;;6217234;23;20020;-80
2024/02/15 07:55:19;;;;;;;;;;;5.00;99.90;;;;;;6217842;23;20020;-81
2024/02/15 07:57:46;;;;;;;;;;;5.10;99.90;;;;;;6218110;23;20039;-80
2024/02/15 08:00:12;;;;;;;10.50;3.75;;;5.10;99.90;;;;;;6217838;23;20396;-80
2024/02/15 08:02:41;;;;;;;12.00;3.70;;;5.20;99.90;;;;;;6218336;23;20024;-80
2024/02/15 08:05:10;;;;;;;11.40;3.80;;;5.30;99.90;;;;;;6219130;23;19900;-80
2024/02/15 08:07:47;;;;;;;10.70;3.60;;;5.40;99.90;;;;;;6219188;23;19900;-80
2024/02/15 08:10:12;;;;;;;;;;;5.50;99.90;;;;;;6217915;23;20021;-80
2024/02/15 08:12:39;;;;;;;;;;;5.70;99.90;;;;;;6217513;23;20551;-80
2024/02/15 08:15:04;;;;;;;16.10;3.60;;;5.90;99.90;;;;;;6216930;23;20037;-80
2024/02/15 08:17:30;;;;;;;7.90;3.45;;;6.00;99.90;;;;;;6217115;23;20038;-79
2024/02/15 08:19:55;;;;;;;8.35;3.15;;;6.20;99.90;;;;;;6217914;23;19908;-80
2024/02/15 08:22:23;;;;;;;6.47;2.60;;;6.30;99.90;;;;;;6217754;23;20021;-80
2024/02/15 08:24:52;;;;;;;6.90;3.00;;;6.50;99.90;;;;;;6217797;23;19926;-81
2024/02/15 08:27:17;;;;;;;4.53;2.90;;;6.60;99.90;;;;;;6217941;23;19916;-80
2024/02/15 08:29:43;;;;;;;6.97;2.60;;;6.80;99.90;;;;;;6217941;23;20327;-80
2024/02/15 08:32:08;;;;;;;6.33;2.90;;;7.00;99.90;;;;;;6218351;23;19997;-80
2024/02/15 08:34:34;;;;;;;4.00;2.43;;;7.30;99.90;;;;;;6218845;23;20073;-80
2024/02/15 08:36:59;;;;;;;6.93;2.40;;;7.50;99.90;;;;;;6218381;23;20009;-80
2024/02/15 08:39:25;;;;;;;6.57;2.37;;;7.70;99.90;;;;;;6218668;23;20011;-80
2024/02/15 08:41:53;;;;;;;3.47;2.20;;;8.00;99.90;;;;;;6218200;23;20370;-80
2024/02/15 08:44:19;;;;;;;3.20;2.00;;;8.20;99.90;;;;;;6218527;23;20027;-80
2024/02/15 08:46:44;;;;;;;4.70;2.20;;;8.40;99.90;;;;;;6217983;23;20005;-79
2024/02/15 08:49:13;;;;;;;7.90;2.30;;;8.60;99.90;;;;;;6219031;23;20035;-79
2024/02/15 08:51:39;;;;;;;7.85;2.30;;;8.90;99.90;;;;;;6218341;23;20071;-80
2024/02/15 08:54:04;;;;;;;4.03;2.10;;;9.10;99.90;;;;;;6218400;23;20008;-80
2024/02/15 08:56:30;;;;;;;7.60;2.30;;;9.40;99.90;;;;;;6215273;23;20050;-81
2024/02/15 08:58:57;;;;;;;;;;;9.60;99.90;;;;;;6218766;23;20008;-80
2024/02/15 09:01:23;;;;;;;;;;;9.90;99.90;;;;;;6219742;23;20103;-80
2024/02/15 09:03:48;;;;;;;;;;;10.10;99.90;;;;;;6219193;23;20015;-80
2024/02/15 09:06:14;;;;;;;;;;;10.30;99.90;;;;;;6219326;23;20511;-80
2024/02/15 09:08:40;;;;;;;;;;;10.50;99.90;;;;;;6219723;23;20013;-80
2024/02/15 09:11:05;;;;;;;;;;;10.70;99.90;;;;;;6218442;23;20011;-80
2024/02/15 09:13:32;;;;;;;;;;;10.90;99.90;;;;;;6218142;23;20295;-80
2024/02/15 09:15:57;;;;;;;;;;;11.10;99.90;;;;;;6216179;23;20544;-80
2024/02/15 09:18:23;;;;;;;;;;;11.20;99.90;;;;;;6217983;23;19900;-80
2024/02/15 09:20:55;;;;;;;;;;;11.40;99.90;;;;;;6217129;23;24064;-80
2024/02/15 09:23:20;;;;;;;;;;;11.50;99.90;;;;;;6217554;23;19943;-80
2024/02/15 09:25:49;;;;;;;;;;;11.60;99.90;;;;;;6216632;23;20350;-80
2024/02/15 09:28:15;;;;;;;;;;;11.70;99.90;;;;;;6216839;23;20204;-80
2024/02/15 09:30:40;;;;;;;;;;;11.80;99.90;;;;;;6216457;23;19922;-80
2024/02/15 09:33:06;;;;;;;;;;;11.90;99.90;;;;;;6213168;23;19907;-80
2024/02/15 09:35:31;;;;;;;;;;;11.90;99.90;;;;;;6211670;23;19993;-81
2024/02/15 09:37:57;;;;;;;;;;;11.90;99.90;;;;;;6215157;23;19900;-80
2024/02/15 09:40:26;;;;;;;;;;;11.80;99.90;;;;;;6216150;23;19900;-80
2024/02/15 09:42:52;;;;;;;;;;;11.90;99.90;;;;;;6211758;23;19900;-79
2024/02/15 09:45:18;;;;;;;;;;;11.90;99.90;;;;;;6211320;23;19907;-79
2024/02/15 09:47:44;;;;;;;;;;;11.90;99.90;;;;;;6214121;23;19907;-79
2024/02/15 09:50:14;;;;;;;;;;;11.90;99.90;;;;;;6215168;23;24070;-79
2024/02/15 09:52:40;;;;;;;;;;;12.00;99.90;;;;;;6216989;23;20314;-76
2024/02/15 09:55:10;;;;;;;;;;;12.00;99.90;;;;;;6212600;23;20540;-77
2024/02/15 09:57:36;;;;;;;;;;;12.10;99.90;;;;;;6211319;23;19998;-77
2024/02/15 10:00:03;;;;;;;;;;;12.10;99.90;;;;;;6213252;23;19927;-77
2024/02/15 10:02:30;;;;;;;;;;;12.20;99.90;;;;;;6213934;23;19900;-77
2024/02/15 10:04:56;;;;;;;;;;;12.20;99.90;;;;;;6209877;23;20535;-77
2024/02/15 10:07:22;;;;;;;;;;;12.30;99.90;;;;;;6212953;23;19904;-77
2024/02/15 10:09:48;;;;;;;;;;;12.40;99.90;;;;;;6214291;23;19900;-76
2024/02/15 10:12:13;;;;;;;;;;;12.40;99.90;;;;;;6213383;23;19950;-77
2024/02/15 10:14:47;;;;;;;;;;;12.40;99.90;;;;;;6213293;23;19900;-77
2024/02/15 10:17:13;;;;;;;;;;;12.60;99.90;;;;;;6213440;23;19911;-77
2024/02/15 10:19:38;;;;;;;;;;;12.80;99.90;;;;;;6215076;23;19938;-77
2024/02/15 10:22:08;;;;;;;;;;;12.90;99.90;;;;;;6214778;23;19900;-76
2024/02/15 10:24:35;;;;;;;;;;;13.00;99.90;;;;;;6213952;23;25090;-77
2024/02/15 10:27:03;;;;;;;;;;;13.00;99.90;;;;;;6213810;23;19947;-77
2024/02/15 10:29:29;;;;;;;;;;;13.10;99.90;;;;;;6212835;23;24077;-77
2024/02/15 10:31:56;;;;;;;;;;;13.20;99.90;;;;;;6212248;23;19900;-76
2024/02/15 10:34:23;;;;;;;;;;;13.30;99.90;;;;;;6212491;23;20417;-77
2024/02/15 10:36:49;;;;;;;;;;;13.40;99.90;;;;;;6212399;23;19908;-77
2024/02/15 10:39:19;;;;;;;;;;;13.60;99.90;;;;;;6212618;23;19900;-77
2024/02/15 10:41:49;;;;;;;;;;;13.60;99.90;;;;;;6211810;23;24043;-77
2024/02/15 10:44:15;;;;;;;;;;;13.70;99.90;;;;;;6212206;23;19904;-77
2024/02/15 10:46:42;;;;;;;;;;;13.90;99.90;;;;;;6213319;23;19900;-77
2024/02/15 10:49:08;;;;;;;;;;;14.10;99.90;;;;;;6212745;23;19910;-77
2024/02/15 10:51:34;;;;;;;;;;;14.20;99.90;;;;;;6215106;23;20079;-77
2024/02/15 10:54:03;;;;;;;;;;;14.40;99.90;;;;;;6214150;23;20004;-76
2024/02/15 10:56:34;;;;;;;;;;;14.50;99.90;;;;;;6214351;23;20003;-77
2024/02/15 10:59:04;;;;;;;;;;;14.70;99.90;;;;;;6214515;23;20337;-76
2024/02/15 11:01:32;;;;;;;;;;;14.80;99.90;;;;;;6214327;23;19900;-77
2024/02/15 11:04:00;;;;;;;;;;;14.80;99.90;;;;;;6213475;23;19903;-77
2024/02/15 11:06:30;;;;;;;;;;;14.90;99.90;;;;;;6212931;23;20024;-76
2024/02/15 11:08:56;;;;;;;;;;;14.90;99.90;;;;;;6214554;23;19956;-77
2024/02/15 11:11:21;;;;;;;;;;;14.90;99.90;;;;;;6214191;23;19903;-77
2024/02/15 11:13:50;;;;;;;;;;;14.90;99.90;;;;;;6213357;23;20017;-77
2024/02/15 11:16:34;;;;;;;;;;;14.90;99.90;;;;;;6212517;23;20022;-77
2024/02/15 11:19:00;;;;;;;;;;;14.90;99.90;;;;;;6213443;23;20321;-79
2024/02/15 11:21:44;;;;;;;;;;;15.00;99.90;;;;;;6213173;23;20084;-71
2024/02/15 11:24:25;;;;;;;;;;;15.10;99.90;;;;;;6213633;23;20038;-71
2024/02/15 11:26:51;;;;;;;1.80;1.10;;;15.10;99.90;;;;;;6214668;23;19900;-71
2024/02/15 11:29:55;;;;;;;6.90;1.08;;;15.20;99.90;;;;;;6214758;23;20032;-71
2024/02/15 11:32:43;;;;;;;3.92;1.23;;;15.30;99.90;;;;;;6214305;23;20543;-71
2024/02/15 11:35:10;;;;;;;3.83;1.30;;;15.40;99.90;;;;;;6214032;23;20004;-71
2024/02/15 11:37:54;;;;;;;1.58;1.10;;;15.60;99.90;;;;;;6214585;23;20339;-71
2024/02/15 11:40:28;;;;;;;3.95;1.17;;;15.70;99.90;;;;;;6214635;23;20004;-72
2024/02/15 11:42:59;;;;;;;1.30;0.90;;;15.80;99.90;;;;;;6214051;23;20422;-71
2024/02/15 11:45:25;;;;;;;;;;;15.90;99.90;;;;;;6214151;23;20026;-71
2024/02/15 11:47:51;;;;;;;;;;;16.00;99.90;;;;;;6213973;23;20004;-71
2024/02/15 11:50:20;;;;;;;;;;;16.10;99.90;;;;;;6213843;23;20005;-73
2024/02/15 11:52:48;;;;;;;;;;;16.10;99.90;;;;;;6212900;23;20117;-72
2024/02/15 11:55:14;;;;;;;;;;;16.10;99.90;;;;;;6213203;23;20339;-71
2024/02/15 11:57:50;;;;;;;;;;;16.10;99.90;;;;;;6213886;23;19961;-71
2024/02/15 12:19:30;;;;;;;;;;;15.70;99.90;;;;;;6213180;23;20042;-72
2024/02/15 12:21:57;;;;;;;;;;;15.70;99.90;;;;;;6211286;23;20015;-71
2024/02/15 12:24:26;;;;;;;;;;;15.60;99.90;;;;;;6212151;23;20018;-72
2024/02/15 12:26:59;;;;;;;;;;;15.50;99.90;;;;;;6213029;23;20463;-71
2024/02/15 12:29:24;;;;;;;;;;;15.50;99.90;;;;;;6212926;23;19906;-72
2024/02/15 12:31:50;;;;;;;;;;;15.70;99.90;;;;;;6212717;23;20069;-71
2024/02/15 12:34:20;;;;;;;;;;;15.80;99.90;;;;;;6213124;23;20097;-72
2024/02/15 12:36:45;;;;;;;;;;;16.10;99.90;;;;;;6212115;23;20004;-72
2024/02/15 12:39:11;;;;;;;;;;;16.10;99.90;;;;;;6213016;23;19938;-72
2024/02/15 12:41:40;;;;;;;;;;;16.20;99.90;;;;;;6212209;23;20076;-71
2024/02/15 12:44:07;;;;;;;;;;;16.40;99.90;;;;;;6211837;23;20015;-72
2024/02/15 12:46:38;;;;;;;;;;;16.40;99.90;;;;;;6212330;23;24036;-72
2024/02/15 12:49:26;;;;;;;;;;;16.30;99.90;;;;;;6212624;23;20158;-72
2024/02/15 12:51:52;;;;;;;;;;;16.20;99.90;;;;;;6198815;23;20106;-72
2024/02/15 12:54:21;;;;;;;;;;;16.10;99.90;;;;;;6205600;23;19959;-72
2024/02/15 12:56:53;;;;;;;;;;;16.10;99.90;;;;;;6209945;23;24049;-77
2024/02/15 12:59:24;;;;;;;;;;;16.00;99.90;;;;;;6212706;23;19907;-72
2024/02/15 13:01:49;;;;;;;;;;;16.00;99.90;;;;;;6211790;23;20307;-72
2024/02/15 13:04:23;;;;;;;;;;;16.10;99.90;;;;;;6211357;23;24100;-71
2024/02/15 13:06:49;;;;;;;;;;;16.00;99.90;;;;;;6211633;23;19987;-72
2024/02/15 13:09:14;;;;;;;;;;;16.00;99.90;;;;;;6211996;23;24057;-78
2024/02/15 13:11:40;;;;;;;;;;;16.10;99.90;;;;;;6212453;23;19900;-76
2024/02/15 13:14:05;;;;;;;;;;;16.10;99.90;;;;;;6211793;23;19958;-77
2024/02/15 13:16:31;;;;;;;;;;;16.10;99.90;;;;;;6212595;23;19990;-77
2024/02/15 13:18:58;;;;;;;;;;;16.20;99.90;;;;;;6212061;23;20423;-77
2024/02/15 13:21:30;;;;;;;;;;;16.10;99.90;;;;;;6212239;23;20349;-77
2024/02/15 13:23:55;;;;;;;;;;;16.20;99.90;;;;;;6211137;23;19906;-77
2024/02/15 13:26:23;;;;;;;;;;;16.10;99.90;;;;;;6212025;23;25068;-77
2024/02/15 13:28:49;;;;;;;;;;;16.00;99.90;;;;;;6212401;23;19903;-77
2024/02/15 13:31:15;;;;;;;;;;;16.00;99.90;;;;;;6212487;23;19973;-77
2024/02/15 13:33:41;;;;;;;;;;;16.00;99.90;;;;;;6211509;23;20010;-77
2024/02/15 13:36:10;;;;;;;;;;;16.00;99.90;;;;;;6212683;23;19908;-77
2024/02/15 13:38:36;;;;;;;;;;;16.10;99.90;;;;;;6212694;23;20012;-77
2024/02/15 13:41:02;;;;;;;;;;;16.20;99.90;;;;;;6212122;23;19900;-77
2024/02/15 13:43:28;;;;;;;;;;;16.30;99.90;;;;;;6209868;23;19900;-77
2024/02/15 13:45:54;;;;;;;;;;;16.30;99.90;;;;;;6211536;23;20230;-77
2024/02/15 13:48:19;;;;;;;;;;;16.40;99.90;;;;;;6212495;23;20099;-76
2024/02/15 13:50:45;;;;;;;;;;;16.20;99.90;;;;;;6211992;23;20522;-77
2024/02/15 13:53:10;;;;;;;;;;;16.20;99.90;;;;;;6211471;23;20021;-77
2024/02/15 13:55:37;;;;;;;;;;;16.10;99.90;;;;;;6212094;23;20109;-77
2024/02/15 13:58:02;;;;;;;;;;;16.10;99.90;;;;;;6212650;23;19900;-77
2024/02/15 14:00:33;;;;;;;;;;;16.20;99.90;;;;;;6211853;23;20010;-77
2024/02/15 14:03:00;;;;;;;;;;;16.20;99.90;;;;;;6212540;23;20130;-71
2024/02/15 14:05:28;;;;;;;;;;;16.10;99.90;;;;;;6211488;23;20323;-71
2024/02/15 14:08:02;;;;;;;;;;;16.10;99.90;;;;;;6211991;23;20018;-70
2024/02/15 14:10:28;;;;;;;;;;;16.20;99.90;;;;;;6212236;23;19899;-71
2024/02/15 14:13:03;;;;;;;;;;;16.30;99.90;;;;;;6211703;23;20005;-71
2024/02/15 14:15:29;;;;;;;;;;;16.30;99.90;;;;;;6210229;23;20094;-71
2024/02/15 14:17:56;;;;;;;;;;;16.40;99.90;;;;;;6211265;23;20032;-71
2024/02/15 14:20:21;;;;;;;;;;;16.40;99.90;;;;;;6211931;23;20017;-72
2024/02/15 14:22:55;;;;;;;;;;;16.50;99.90;;;;;;6211610;23;20031;-71
2024/02/15 14:25:21;;;;;;;;;;;16.50;99.90;;;;;;6210181;23;20091;-74
2024/02/15 14:27:47;;;;;;;;;;;16.50;99.90;;;;;;6211361;23;20285;-72
2024/02/15 14:33:00;;;;;;;;;;;16.40;99.90;;;;;;6212026;23;19915;-72